createdAt,value
2023-06-27T00:00:16.033Z,77.70
2023-06-27T00:02:49.576Z,78.01
2023-06-27T00:05:16.225Z,77.81
2023-06-27T00:07:43.374Z,77.72
2023-06-27T00:10:13.129Z,77.72
2023-06-27T00:12:39.713Z,77.50
2023-06-27T00:15:07.004Z,77.63
2023-06-27T00:17:34.568Z,77.76
2023-06-27T00:20:01.805Z,77.41
2023-06-27T00:22:28.409Z,77.25
2023-06-27T00:24:55.235Z,77.35
2023-06-27T00:27:22.178Z,77.64
2023-06-27T00:29:48.843Z,77.71
2023-06-27T00:32:15.462Z,78.04
2023-06-27T00:34:42.245Z,77.92
2023-06-27T00:37:09.130Z,77.63
2023-06-27T00:39:37.471Z,77.45
2023-06-27T00:42:04.597Z,76.87
2023-06-27T00:44:31.124Z,76.50
2023-06-27T00:46:58.089Z,76.80
2023-06-27T00:49:25.428Z,76.59
2023-06-27T00:51:54.467Z,76.23
2023-06-27T00:54:27.535Z,76.17
2023-06-27T00:56:57.565Z,76.26
2023-06-27T00:59:28.121Z,76.21
2023-06-27T01:01:55.183Z,76.69
2023-06-27T01:04:21.805Z,77.09
2023-06-27T01:06:55.629Z,77.46
2023-06-27T01:09:32.210Z,77.33
2023-06-27T01:12:10.950Z,77.43
2023-06-27T01:14:39.006Z,76.62
2023-06-27T01:17:06.457Z,76.72
2023-06-27T01:19:36.903Z,76.33
2023-06-27T01:22:10.239Z,76.66
2023-06-27T01:24:38.020Z,76.45
2023-06-27T01:27:05.414Z,76.25
2023-06-27T01:29:32.018Z,76.81
2023-06-27T01:32:25.771Z,76.27
2023-06-27T01:35:09.979Z,76.68
2023-06-27T01:37:45.740Z,77.30
2023-06-27T01:40:15.407Z,77.19
2023-06-27T01:42:44.301Z,77.40
2023-06-27T01:45:12.909Z,77.98
2023-06-27T01:47:43.981Z,78.49
2023-06-27T01:50:12.295Z,78.35
2023-06-27T01:52:40.591Z,78.76
2023-06-27T01:55:07.908Z,79.20
2023-06-27T01:57:34.725Z,79.26
2023-06-27T02:00:01.330Z,79.46
2023-06-27T02:02:42.444Z,80.00
2023-06-27T02:05:09.415Z,79.87
2023-06-27T02:07:36.286Z,80.18
2023-06-27T02:10:03.304Z,80.28
2023-06-27T02:12:30.234Z,80.71
2023-06-27T02:14:57.542Z,80.77
2023-06-27T02:17:24.529Z,80.82
2023-06-27T02:19:51.137Z,81.26
2023-06-27T02:22:24.243Z,81.11
2023-06-27T02:24:57.879Z,81.28
2023-06-27T02:27:24.531Z,81.79
2023-06-27T02:29:52.482Z,81.57
2023-06-27T02:32:19.380Z,81.98
2023-06-27T02:34:45.991Z,82.12
2023-06-27T02:37:13.546Z,82.62
2023-06-27T02:39:40.135Z,82.82
2023-06-27T02:42:07.052Z,82.93
2023-06-27T02:44:33.570Z,82.98
2023-06-27T02:47:00.127Z,83.21
2023-06-27T02:49:26.757Z,83.23
2023-06-27T02:51:56.897Z,83.23
2023-06-27T02:54:23.437Z,83.28
2023-06-27T02:56:50.549Z,83.36
2023-06-27T02:59:17.099Z,84.07
2023-06-27T03:01:43.864Z,84.05
2023-06-27T03:04:19.105Z,84.07
2023-06-27T03:06:48.000Z,84.30
2023-06-27T03:09:15.168Z,84.53
2023-06-27T03:11:42.128Z,84.49
2023-06-27T03:14:08.864Z,84.75
2023-06-27T03:16:35.924Z,84.75
2023-06-27T03:19:03.134Z,85.15
2023-06-27T03:21:30.621Z,85.54
2023-06-27T03:23:57.481Z,85.30
2023-06-27T03:26:32.018Z,85.36
2023-06-27T03:29:01.146Z,85.38
2023-06-27T03:31:28.084Z,85.36
2023-06-27T03:33:56.079Z,85.29
2023-06-27T03:36:22.693Z,85.33
2023-06-27T03:38:52.086Z,85.29
2023-06-27T03:41:19.152Z,85.14
2023-06-27T03:43:47.411Z,84.54
2023-06-27T03:46:15.365Z,84.66
2023-06-27T03:48:42.135Z,84.80
2023-06-27T03:51:08.698Z,84.49
2023-06-27T03:53:35.360Z,84.55
2023-06-27T03:56:03.336Z,84.43
2023-06-27T03:58:31.763Z,84.53
2023-06-27T04:01:01.881Z,84.63
2023-06-27T04:03:29.612Z,84.58
2023-06-27T04:05:56.265Z,84.51
2023-06-27T04:08:24.558Z,84.46
2023-06-27T04:10:51.090Z,84.23
2023-06-27T04:13:19.566Z,84.15
2023-06-27T04:15:46.070Z,83.93
2023-06-27T04:18:14.441Z,84.02
2023-06-27T04:20:41.087Z,84.11
2023-06-27T04:23:07.894Z,83.98
2023-06-27T04:25:39.433Z,84.00
2023-06-27T04:28:06.369Z,84.23
2023-06-27T04:30:33.829Z,84.09
2023-06-27T04:33:05.541Z,83.99
2023-06-27T04:35:32.153Z,84.38
2023-06-27T04:38:06.030Z,83.89
2023-06-27T04:40:32.710Z,83.90
2023-06-27T04:43:05.478Z,84.10
2023-06-27T04:45:32.911Z,83.95
2023-06-27T04:48:01.312Z,83.79
2023-06-27T04:50:28.167Z,84.18
2023-06-27T04:52:56.213Z,83.95
2023-06-27T04:55:23.000Z,83.69
2023-06-27T04:57:49.597Z,83.65
2023-06-27T05:00:16.541Z,83.43
2023-06-27T05:02:49.557Z,83.78
2023-06-27T05:05:18.300Z,83.57
2023-06-27T05:07:45.008Z,83.48
2023-06-27T05:10:11.566Z,83.37
2023-06-27T05:12:38.089Z,82.80
2023-06-27T05:15:10.496Z,82.55
2023-06-27T05:17:37.179Z,82.50
2023-06-27T05:20:05.407Z,81.92
2023-06-27T05:22:31.940Z,81.34
2023-06-27T05:25:01.217Z,81.11
2023-06-27T05:27:27.844Z,80.77
2023-06-27T05:29:58.360Z,79.76
2023-06-27T05:32:25.461Z,79.01
2023-06-27T05:34:52.037Z,77.17
2023-06-27T05:37:18.648Z,75.08
2023-06-27T05:39:46.411Z,72.99
2023-06-27T05:42:16.474Z,70.66
2023-06-27T05:44:43.031Z,69.24
2023-06-27T05:47:09.718Z,68.98
2023-06-27T05:49:36.244Z,68.84
2023-06-27T05:52:11.797Z,66.59
2023-06-27T05:54:47.763Z,61.90
2023-06-27T05:57:14.447Z,59.94
2023-06-27T05:59:41.199Z,58.80
2023-06-27T06:02:07.828Z,55.55
2023-06-27T06:04:34.821Z,51.94
2023-06-27T06:07:01.429Z,47.86
2023-06-27T06:09:49.476Z,45.74
2023-06-27T06:12:15.994Z,41.25
2023-06-27T06:14:42.681Z,39.67
2023-06-27T06:17:09.204Z,37.42
2023-06-27T06:19:35.686Z,37.09
2023-06-27T06:22:02.225Z,34.84
2023-06-27T06:24:28.818Z,35.44
2023-06-27T06:26:55.341Z,34.42
2023-06-27T06:29:21.881Z,34.52
2023-06-27T06:31:49.785Z,33.72
2023-06-27T06:34:16.217Z,34.94
2023-06-27T06:36:43.126Z,35.35
2023-06-27T06:39:09.629Z,34.32
2023-06-27T06:41:36.123Z,32.70
2023-06-27T06:46:54.364Z,32.70
2023-06-27T06:49:20.927Z,30.94
2023-06-27T06:51:47.590Z,29.95
2023-06-27T06:54:34.339Z,29.26
2023-06-27T06:57:00.968Z,29.00
2023-06-27T06:59:27.573Z,28.52
2023-06-27T07:02:01.093Z,29.30
2023-06-27T07:04:27.665Z,27.76
2023-06-27T07:06:59.393Z,30.72
2023-06-27T07:09:29.571Z,32.11
2023-06-27T07:12:05.382Z,29.70
2023-06-27T07:14:33.416Z,28.42
2023-06-27T07:16:59.986Z,27.02
2023-06-27T07:19:27.735Z,26.62
2023-06-27T07:21:54.378Z,28.75
2023-06-27T07:24:20.969Z,29.40
2023-06-27T07:26:47.601Z,31.45
2023-06-27T07:29:14.218Z,32.36
2023-06-27T07:31:40.808Z,35.02
2023-06-27T07:34:07.570Z,35.97
2023-06-27T07:36:34.103Z,35.21
2023-06-27T07:39:00.740Z,36.41
2023-06-27T07:41:27.423Z,33.69
2023-06-27T07:43:54.021Z,28.51
2023-06-27T07:46:20.559Z,30.29
2023-06-27T07:48:49.220Z,31.76
2023-06-27T07:51:15.831Z,31.94
2023-06-27T07:53:43.072Z,34.72
2023-06-27T07:56:16.535Z,30.83
2023-06-27T07:58:44.406Z,30.42
2023-06-27T08:01:14.216Z,33.45
2023-06-27T08:03:51.828Z,34.79
2023-06-27T08:06:40.310Z,33.46
2023-06-27T08:09:07.394Z,31.29
2023-06-27T08:11:40.177Z,28.57
2023-06-27T08:14:07.155Z,30.32
2023-06-27T08:16:49.467Z,32.63
2023-06-27T08:19:16.076Z,33.93
2023-06-27T08:21:48.195Z,36.82
2023-06-27T08:24:14.915Z,37.89
2023-06-27T08:26:42.114Z,37.24
2023-06-27T08:29:17.821Z,37.04
2023-06-27T08:31:44.365Z,38.11
2023-06-27T08:36:52.823Z,38.77
2023-06-27T08:39:19.552Z,37.11
2023-06-27T08:41:49.836Z,39.24
2023-06-27T08:44:16.693Z,39.20
2023-06-27T08:46:50.918Z,37.71
2023-06-27T08:49:28.048Z,37.66
2023-06-27T08:52:01.615Z,38.16
2023-06-27T08:54:35.472Z,36.76
2023-06-27T08:57:08.170Z,36.19
2023-06-27T08:59:37.405Z,37.17
2023-06-27T09:02:05.160Z,35.91
2023-06-27T09:04:34.657Z,37.09
2023-06-27T09:07:02.030Z,34.99
2023-06-27T09:09:30.111Z,35.66
2023-06-27T09:12:15.642Z,35.35
2023-06-27T09:14:42.264Z,34.70
2023-06-27T09:17:09.503Z,37.27
2023-06-27T09:19:45.070Z,35.60
2023-06-27T09:22:12.306Z,35.01
2023-06-27T09:24:45.172Z,34.16
2023-06-27T09:27:31.586Z,33.23
2023-06-27T09:30:24.204Z,35.70
2023-06-27T09:34:02.855Z,37.99
2023-06-27T09:40:28.070Z,38.63
2023-06-27T09:42:56.647Z,39.83
2023-06-27T09:45:24.933Z,40.37
2023-06-27T09:47:53.783Z,37.75
2023-06-27T09:50:28.102Z,40.43
2023-06-27T09:53:04.122Z,40.69
2023-06-27T09:55:30.666Z,38.16
2023-06-27T09:57:58.623Z,40.24
2023-06-27T10:00:28.186Z,40.37
2023-06-27T10:02:54.917Z,42.20
2023-06-27T10:05:22.567Z,40.45
2023-06-27T10:07:50.763Z,41.61
2023-06-27T10:10:17.908Z,39.14
2023-06-27T10:12:46.075Z,38.76
2023-06-27T10:15:19.950Z,38.91
2023-06-27T10:17:46.878Z,39.91
2023-06-27T10:20:14.473Z,39.72
2023-06-27T10:22:44.933Z,39.21
2023-06-27T10:25:12.167Z,39.10
2023-06-27T10:27:40.041Z,40.49
2023-06-27T10:30:21.579Z,38.40
2023-06-27T10:32:49.349Z,38.72
2023-06-27T10:35:27.590Z,41.10
2023-06-27T10:38:10.004Z,40.65
2023-06-27T10:41:03.430Z,40.63
2023-06-27T10:43:39.533Z,38.68
2023-06-27T10:46:21.020Z,38.58
2023-06-27T10:48:50.006Z,39.09
2023-06-27T10:51:22.246Z,39.03
2023-06-27T10:54:13.063Z,38.70
2023-06-27T10:56:54.406Z,36.03
2023-06-27T10:59:23.626Z,39.97
2023-06-27T11:02:05.961Z,36.39
2023-06-27T11:04:43.235Z,36.57
2023-06-27T11:07:18.382Z,34.09
2023-06-27T11:09:59.338Z,35.67
2023-06-27T11:12:34.980Z,35.12
2023-06-27T11:15:47.992Z,37.44
2023-06-27T11:18:17.345Z,36.33
2023-06-27T11:20:44.398Z,36.38
2023-06-27T11:23:12.773Z,35.37
2023-06-27T11:25:43.423Z,38.04
2023-06-27T11:28:12.242Z,36.77
2023-06-27T11:30:39.968Z,36.63
2023-06-27T11:33:07.213Z,36.67
2023-06-27T11:35:34.312Z,36.92
2023-06-27T11:38:01.182Z,34.45
2023-06-27T11:40:28.846Z,36.47
2023-06-27T11:43:03.325Z,33.16
2023-06-27T11:45:30.733Z,32.61
2023-06-27T11:47:57.409Z,33.76
2023-06-27T11:50:24.906Z,33.57
2023-06-27T11:52:52.576Z,35.40
2023-06-27T11:55:19.251Z,35.99
2023-06-27T11:57:47.751Z,36.80
2023-06-27T12:00:23.262Z,35.42
2023-06-27T12:02:53.774Z,38.42
2023-06-27T12:05:22.295Z,37.29
2023-06-27T12:08:21.663Z,35.21
2023-06-27T12:10:58.280Z,35.11
2023-06-27T12:13:40.748Z,37.05
2023-06-27T12:16:07.493Z,36.89
2023-06-27T12:18:34.609Z,37.86
2023-06-27T12:21:01.547Z,34.72
2023-06-27T12:23:30.189Z,37.50
2023-06-27T12:25:57.086Z,35.24
2023-06-27T12:28:30.418Z,34.29
2023-06-27T12:30:57.143Z,35.62
2023-06-27T12:33:24.658Z,34.47
2023-06-27T12:35:51.564Z,35.83
2023-06-27T12:38:18.123Z,37.15
2023-06-27T12:40:44.701Z,37.69
2023-06-27T12:43:12.854Z,37.06
2023-06-27T12:45:44.329Z,38.47
2023-06-27T12:48:11.649Z,37.10
2023-06-27T12:50:38.296Z,38.51
2023-06-27T12:53:04.953Z,37.67
2023-06-27T12:55:31.565Z,36.02
2023-06-27T12:58:00.338Z,36.32
2023-06-27T13:00:26.966Z,34.72
2023-06-27T13:03:04.180Z,34.74
2023-06-27T13:05:35.443Z,33.97
2023-06-27T13:08:01.967Z,34.47
2023-06-27T13:10:28.704Z,34.87
2023-06-27T13:12:55.970Z,38.10
2023-06-27T13:15:23.778Z,35.67
2023-06-27T13:17:54.657Z,36.60
2023-06-27T13:20:21.955Z,35.66
2023-06-27T13:22:49.575Z,36.50
2023-06-27T13:25:18.490Z,37.46
2023-06-27T13:27:44.992Z,36.39
2023-06-27T13:30:20.380Z,38.06
2023-06-27T13:32:50.371Z,37.35
2023-06-27T13:35:16.984Z,38.46
2023-06-27T13:37:59.642Z,35.17
2023-06-27T13:40:29.078Z,37.15
2023-06-27T13:42:57.562Z,37.93
2023-06-27T13:45:25.210Z,37.77
2023-06-27T13:47:52.327Z,36.92
2023-06-27T13:50:19.727Z,37.90
2023-06-27T13:52:46.238Z,37.75
2023-06-27T13:55:13.065Z,39.07
2023-06-27T13:57:39.590Z,37.59
2023-06-27T14:00:06.915Z,39.67
2023-06-27T14:02:39.209Z,39.14
2023-06-27T14:05:27.686Z,37.80
2023-06-27T14:07:56.093Z,37.93
2023-06-27T14:10:23.617Z,36.50
2023-06-27T14:12:50.586Z,38.17
2023-06-27T14:15:17.800Z,37.95
2023-06-27T14:17:44.633Z,38.06
2023-06-27T14:20:14.300Z,36.79
2023-06-27T14:22:41.367Z,37.24
2023-06-27T14:25:08.664Z,37.67
2023-06-27T14:27:36.503Z,38.42
2023-06-27T14:30:04.912Z,38.12
2023-06-27T14:32:31.831Z,38.41
2023-06-27T14:34:59.274Z,38.21
2023-06-27T14:37:25.875Z,37.13
2023-06-27T14:39:54.806Z,38.08
2023-06-27T14:42:21.320Z,37.45
2023-06-27T14:44:47.987Z,40.03
2023-06-27T14:47:14.772Z,39.55
2023-06-27T14:49:41.543Z,38.29
2023-06-27T14:52:08.194Z,39.62
2023-06-27T14:54:34.898Z,39.77
2023-06-27T14:57:07.311Z,38.65
2023-06-27T14:59:34.169Z,38.24
2023-06-27T15:02:00.694Z,36.90
2023-06-27T15:04:27.299Z,36.76
2023-06-27T15:06:56.909Z,38.53
2023-06-27T15:09:23.493Z,38.29
2023-06-27T15:11:50.540Z,36.69
2023-06-27T15:14:17.259Z,38.10
2023-06-27T15:16:43.976Z,37.01
2023-06-27T15:19:10.487Z,37.66
2023-06-27T15:21:37.040Z,38.40
2023-06-27T15:24:03.787Z,39.94
2023-06-27T15:26:30.394Z,41.10
2023-06-27T15:28:56.984Z,41.94
2023-06-27T15:31:23.536Z,41.14
2023-06-27T15:33:50.135Z,41.81
2023-06-27T15:36:16.949Z,43.53
2023-06-27T15:38:43.500Z,40.11
2023-06-27T15:41:10.188Z,38.99
2023-06-27T15:43:37.226Z,40.57
2023-06-27T15:46:04.661Z,40.56
2023-06-27T15:48:31.461Z,41.08
2023-06-27T15:50:59.838Z,41.31
2023-06-27T15:53:26.601Z,40.93
2023-06-27T15:55:53.152Z,41.53
2023-06-27T15:58:19.718Z,40.97
2023-06-27T16:00:46.324Z,41.51
2023-06-27T16:03:13.012Z,42.11
2023-06-27T16:05:39.688Z,42.88
2023-06-27T16:08:06.256Z,41.71
2023-06-27T16:10:33.071Z,42.92
2023-06-27T16:12:59.838Z,42.93
2023-06-27T16:15:26.356Z,42.04
2023-06-27T16:17:53.554Z,42.75
2023-06-27T16:20:20.106Z,42.29
2023-06-27T16:22:46.652Z,42.80
2023-06-27T16:25:14.181Z,44.77
2023-06-27T16:27:40.909Z,45.06
2023-06-27T16:30:09.561Z,44.02
2023-06-27T16:32:37.469Z,42.94
2023-06-27T16:35:04.406Z,43.09
2023-06-27T16:37:32.941Z,43.43
2023-06-27T16:39:59.940Z,43.27
2023-06-27T16:42:26.543Z,44.95
2023-06-27T16:44:53.296Z,43.04
2023-06-27T16:47:21.333Z,43.13
2023-06-27T16:49:48.953Z,44.05
2023-06-27T16:52:15.475Z,44.46
2023-06-27T16:54:42.014Z,46.17
2023-06-27T16:57:08.654Z,44.33
2023-06-27T16:59:35.360Z,45.22
2023-06-27T17:02:01.983Z,45.02
2023-06-27T17:04:28.692Z,45.53
2023-06-27T17:06:55.311Z,47.30
2023-06-27T17:09:22.360Z,44.56
2023-06-27T17:11:49.077Z,45.26
2023-06-27T17:14:15.945Z,46.50
2023-06-27T17:16:43.079Z,47.30
2023-06-27T17:19:11.402Z,46.22
2023-06-27T17:21:38.694Z,45.70
2023-06-27T17:24:05.895Z,45.26
2023-06-27T17:26:32.676Z,46.42
2023-06-27T17:28:59.376Z,46.78
2023-06-27T17:31:26.675Z,46.60
2023-06-27T17:33:53.401Z,47.15
2023-06-27T17:36:20.007Z,47.20
2023-06-27T17:38:46.549Z,47.03
2023-06-27T17:41:13.051Z,48.12
2023-06-27T17:43:39.549Z,48.30
2023-06-27T17:46:06.115Z,48.37
2023-06-27T17:48:32.663Z,48.15
2023-06-27T17:50:59.181Z,48.49
2023-06-27T17:53:25.739Z,48.50
2023-06-27T17:55:52.423Z,47.77
2023-06-27T17:58:19.138Z,48.63
2023-06-27T18:00:45.959Z,48.50
2023-06-27T18:03:13.005Z,49.09
2023-06-27T18:05:39.997Z,48.17
2023-06-27T18:08:16.817Z,49.05
2023-06-27T18:10:44.438Z,48.98
2023-06-27T18:13:11.525Z,48.89
2023-06-27T18:15:38.294Z,49.61
2023-06-27T18:18:05.413Z,47.78
2023-06-27T18:20:32.153Z,48.00
2023-06-27T18:22:58.684Z,48.08
2023-06-27T18:25:25.309Z,49.76
2023-06-27T18:27:51.956Z,48.06
2023-06-27T18:30:18.588Z,48.03
2023-06-27T18:32:46.211Z,48.13
2023-06-27T18:35:12.964Z,47.92
2023-06-27T18:37:39.502Z,49.16
2023-06-27T18:40:06.596Z,49.28
2023-06-27T18:42:33.278Z,49.08
2023-06-27T18:44:59.999Z,49.20
2023-06-27T18:47:26.820Z,49.31
2023-06-27T18:49:53.533Z,49.69
2023-06-27T18:52:20.199Z,50.86
2023-06-27T18:54:46.822Z,49.21
2023-06-27T18:57:13.694Z,49.60
2023-06-27T18:59:40.180Z,51.27
2023-06-27T19:02:07.606Z,50.53
2023-06-27T19:04:37.129Z,50.25
2023-06-27T19:07:03.914Z,50.96
2023-06-27T19:09:30.652Z,50.08
2023-06-27T19:11:57.215Z,50.02
2023-06-27T19:14:23.694Z,51.05
2023-06-27T19:16:50.324Z,52.18
2023-06-27T19:19:17.718Z,50.94
2023-06-27T19:21:44.998Z,52.45
2023-06-27T19:24:12.290Z,52.58
2023-06-27T19:26:38.901Z,53.17
2023-06-27T19:29:05.445Z,52.82
2023-06-27T19:31:32.076Z,53.02
2023-06-27T19:33:58.630Z,53.12
2023-06-27T19:36:25.150Z,53.60
2023-06-27T19:38:54.801Z,53.85
2023-06-27T19:41:24.491Z,53.90
2023-06-27T19:43:51.139Z,55.00
2023-06-27T19:46:17.860Z,55.27
2023-06-27T19:48:44.466Z,54.57
2023-06-27T19:51:11.790Z,54.16
2023-06-27T19:53:39.144Z,54.32
2023-06-27T19:56:06.937Z,54.64
2023-06-27T19:58:33.528Z,55.76
2023-06-27T20:01:00.659Z,55.87
2023-06-27T20:03:27.218Z,56.57
2023-06-27T20:05:56.505Z,59.63
2023-06-27T20:08:23.251Z,59.83
2023-06-27T20:10:49.904Z,58.73
2023-06-27T20:13:16.764Z,60.65
2023-06-27T20:15:43.389Z,60.42
2023-06-27T20:18:11.016Z,61.48
2023-06-27T20:20:37.558Z,62.30
2023-06-27T20:23:04.221Z,63.28
2023-06-27T20:25:30.734Z,64.52
2023-06-27T20:28:00.421Z,64.78
2023-06-27T20:30:29.132Z,66.65
2023-06-27T20:32:56.157Z,66.25
2023-06-27T20:35:22.910Z,67.60
2023-06-27T20:37:49.851Z,66.64
2023-06-27T20:40:16.654Z,66.78
2023-06-27T20:42:46.756Z,68.57
2023-06-27T20:45:14.457Z,69.47
2023-06-27T20:47:41.110Z,70.71
2023-06-27T20:50:09.134Z,70.57
2023-06-27T20:52:35.789Z,71.17
2023-06-27T20:55:02.532Z,70.71
2023-06-27T20:57:29.108Z,71.99
2023-06-27T20:59:57.041Z,72.96
2023-06-27T21:02:24.597Z,72.75
2023-06-27T21:04:57.333Z,73.68
2023-06-27T21:07:23.993Z,72.63
2023-06-27T21:09:50.651Z,73.95
2023-06-27T21:12:20.550Z,75.92
2023-06-27T21:14:49.480Z,74.64
2023-06-27T21:17:24.511Z,75.26
2023-06-27T21:19:51.139Z,77.04
2023-06-27T21:22:17.800Z,78.10
2023-06-27T21:24:46.819Z,77.37
2023-06-27T21:27:13.395Z,78.84
2023-06-27T21:29:40.019Z,81.07
2023-06-27T21:32:07.300Z,79.49
2023-06-27T21:34:33.834Z,80.25
2023-06-27T21:37:00.391Z,81.79
2023-06-27T21:39:27.143Z,81.97
2023-06-27T21:41:54.002Z,80.21
2023-06-27T21:44:20.695Z,80.77
2023-06-27T21:46:47.336Z,82.03
2023-06-27T21:49:13.887Z,82.11
2023-06-27T21:51:40.458Z,80.86
2023-06-27T21:54:07.037Z,81.95
2023-06-27T21:56:35.935Z,82.63
2023-06-27T21:59:04.526Z,81.60
2023-06-27T22:01:31.052Z,81.23
2023-06-27T22:03:57.832Z,82.15
2023-06-27T22:06:34.134Z,82.60
2023-06-27T22:09:01.045Z,82.90
2023-06-27T22:11:27.708Z,82.55
2023-06-27T22:13:55.497Z,82.00
2023-06-27T22:16:22.999Z,83.04
2023-06-27T22:18:50.254Z,83.49
2023-06-27T22:21:17.453Z,83.25
2023-06-27T22:23:44.108Z,84.31
2023-06-27T22:26:10.766Z,84.53
2023-06-27T22:28:38.878Z,84.49
2023-06-27T22:31:05.599Z,83.66
2023-06-27T22:33:32.496Z,84.22
2023-06-27T22:35:59.201Z,84.18
2023-06-27T22:38:27.211Z,84.15
2023-06-27T22:40:53.725Z,84.95
2023-06-27T22:43:20.277Z,84.78
2023-06-27T22:45:46.907Z,84.10
2023-06-27T22:48:13.637Z,84.03
2023-06-27T22:50:40.757Z,84.74
2023-06-27T22:53:11.894Z,84.96
2023-06-27T22:55:38.540Z,85.04
2023-06-27T22:58:05.068Z,84.51
2023-06-27T23:00:32.092Z,84.91
2023-06-27T23:02:58.789Z,85.18
2023-06-27T23:05:25.503Z,84.88
2023-06-27T23:07:52.161Z,84.93
2023-06-27T23:10:18.834Z,84.35
2023-06-27T23:12:45.414Z,83.52
2023-06-27T23:15:12.100Z,85.11
2023-06-27T23:17:39.144Z,84.57
2023-06-27T23:20:08.194Z,85.65
2023-06-27T23:22:37.898Z,84.01
2023-06-27T23:25:06.849Z,85.70
2023-06-27T23:27:36.396Z,84.72
2023-06-27T23:30:05.108Z,84.89
2023-06-27T23:32:32.026Z,84.75
2023-06-27T23:35:01.519Z,84.58
2023-06-27T23:37:28.463Z,85.79
2023-06-27T23:39:55.061Z,85.11
2023-06-27T23:42:21.604Z,85.77
2023-06-27T23:44:48.198Z,85.15
2023-06-27T23:47:15.749Z,86.24
2023-06-27T23:49:42.526Z,86.31
2023-06-27T23:52:09.054Z,86.50
2023-06-27T23:54:35.684Z,86.27
2023-06-27T23:57:02.377Z,85.85
2023-06-27T23:59:29.484Z,86.19
